sensor_id;sensor_type;location;lat;lon;timestamp;P1;durP1;ratioP1;P2;durP2;ratioP2
54853;SDS011;40747;49.480;8.658;2023-11-18T00:00:51;5.57;;;3.30;;
54853;SDS011;40747;49.480;8.658;2023-11-18T00:03:16;5.15;;;4.40;;
54853;SDS011;40747;49.480;8.658;2023-11-18T00:05:42;7.07;;;5.00;;
54853;SDS011;40747;49.480;8.658;2023-11-18T00:08:07;9.23;;;3.63;;
54853;SDS011;40747;49.480;8.658;2023-11-18T00:10:32;4.05;;;2.65;;
54853;SDS011;40747;49.480;8.658;2023-11-18T00:12:57;5.35;;;2.90;;
54853;SDS011;40747;49.480;8.658;2023-11-18T00:15:23;3.70;;;2.67;;
54853;SDS011;40747;49.480;8.658;2023-11-18T00:17:48;3.88;;;2.50;;
54853;SDS011;40747;49.480;8.658;2023-11-18T00:20:13;3.85;;;2.85;;
54853;SDS011;40747;49.480;8.658;2023-11-18T00:22:41;8.32;;;4.40;;
54853;SDS011;40747;49.480;8.658;2023-11-18T00:25:07;4.88;;;3.08;;
54853;SDS011;40747;49.480;8.658;2023-11-18T00:27:33;4.68;;;2.83;;
54853;SDS011;40747;49.480;8.658;2023-11-18T00:30:01;5.63;;;3.38;;
54853;SDS011;40747;49.480;8.658;2023-11-18T00:32:29;6.50;;;3.90;;
54853;SDS011;40747;49.480;8.658;2023-11-18T00:34:56;5.85;;;3.58;;
54853;SDS011;40747;49.480;8.658;2023-11-18T00:37:21;11.40;;;5.00;;
54853;SDS011;40747;49.480;8.658;2023-11-18T00:39:47;7.15;;;4.03;;
54853;SDS011;40747;49.480;8.658;2023-11-18T00:42:12;5.78;;;3.13;;
54853;SDS011;40747;49.480;8.658;2023-11-18T00:44:37;5.38;;;3.35;;
54853;SDS011;40747;49.480;8.658;2023-11-18T00:47:02;8.50;;;3.47;;
54853;SDS011;40747;49.480;8.658;2023-11-18T00:49:28;6.20;;;3.80;;
54853;SDS011;40747;49.480;8.658;2023-11-18T00:51:53;4.05;;;3.55;;
54853;SDS011;40747;49.480;8.658;2023-11-18T00:54:18;6.55;;;4.47;;
54853;SDS011;40747;49.480;8.658;2023-11-18T00:56:44;8.98;;;5.35;;
54853;SDS011;40747;49.480;8.658;2023-11-18T00:59:09;8.02;;;4.03;;
54853;SDS011;40747;49.480;8.658;2023-11-18T01:01:35;9.27;;;5.45;;
54853;SDS011;40747;49.480;8.658;2023-11-18T01:04:01;8.63;;;4.20;;
54853;SDS011;40747;49.480;8.658;2023-11-18T01:06:27;7.30;;;3.67;;
54853;SDS011;40747;49.480;8.658;2023-11-18T01:08:53;8.55;;;3.85;;
54853;SDS011;40747;49.480;8.658;2023-11-18T01:11:18;6.97;;;4.10;;
54853;SDS011;40747;49.480;8.658;2023-11-18T01:13:47;8.77;;;4.40;;
54853;SDS011;40747;49.480;8.658;2023-11-18T01:16:12;9.88;;;4.35;;
54853;SDS011;40747;49.480;8.658;2023-11-18T01:18:39;8.70;;;4.07;;
54853;SDS011;40747;49.480;8.658;2023-11-18T01:21:05;7.00;;;4.50;;
54853;SDS011;40747;49.480;8.658;2023-11-18T01:23:30;6.63;;;3.72;;
54853;SDS011;40747;49.480;8.658;2023-11-18T01:25:57;14.30;;;4.28;;
54853;SDS011;40747;49.480;8.658;2023-11-18T01:28:22;7.82;;;3.90;;
54853;SDS011;40747;49.480;8.658;2023-11-18T01:30:49;16.35;;;5.53;;
54853;SDS011;40747;49.480;8.658;2023-11-18T01:33:15;5.28;;;3.20;;
54853;SDS011;40747;49.480;8.658;2023-11-18T01:35:40;11.45;;;6.30;;
54853;SDS011;40747;49.480;8.658;2023-11-18T01:38:05;7.72;;;4.60;;
54853;SDS011;40747;49.480;8.658;2023-11-18T01:40:30;6.30;;;3.58;;
54853;SDS011;40747;49.480;8.658;2023-11-18T01:42:56;8.88;;;4.25;;
54853;SDS011;40747;49.480;8.658;2023-11-18T01:45:22;5.57;;;3.47;;
54853;SDS011;40747;49.480;8.658;2023-11-18T01:47:47;8.85;;;4.10;;
54853;SDS011;40747;49.480;8.658;2023-11-18T01:50:16;6.78;;;4.15;;
54853;SDS011;40747;49.480;8.658;2023-11-18T01:52:42;7.28;;;3.97;;
54853;SDS011;40747;49.480;8.658;2023-11-18T01:55:09;6.95;;;3.85;;
54853;SDS011;40747;49.480;8.658;2023-11-18T01:57:35;6.78;;;3.85;;
54853;SDS011;40747;49.480;8.658;2023-11-18T02:00:02;7.35;;;4.82;;
54853;SDS011;40747;49.480;8.658;2023-11-18T02:02:31;9.80;;;4.90;;
54853;SDS011;40747;49.480;8.658;2023-11-18T02:04:57;7.07;;;3.78;;
54853;SDS011;40747;49.480;8.658;2023-11-18T02:07:23;6.28;;;4.15;;
54853;SDS011;40747;49.480;8.658;2023-11-18T02:09:49;6.57;;;3.92;;
54853;SDS011;40747;49.480;8.658;2023-11-18T02:15:06;7.65;;;4.30;;
54853;SDS011;40747;49.480;8.658;2023-11-18T02:17:38;5.82;;;3.67;;
54853;SDS011;40747;49.480;8.658;2023-11-18T02:20:04;8.10;;;5.00;;
54853;SDS011;40747;49.480;8.658;2023-11-18T02:22:40;7.63;;;4.78;;
54853;SDS011;40747;49.480;8.658;2023-11-18T02:25:07;8.40;;;4.70;;
54853;SDS011;40747;49.480;8.658;2023-11-18T02:27:36;7.95;;;4.50;;
54853;SDS011;40747;49.480;8.658;2023-11-18T02:30:02;7.72;;;5.13;;
54853;SDS011;40747;49.480;8.658;2023-11-18T02:35:25;5.88;;;3.80;;
54853;SDS011;40747;49.480;8.658;2023-11-18T02:37:55;12.90;;;3.35;;
54853;SDS011;40747;49.480;8.658;2023-11-18T02:40:27;9.48;;;5.35;;
54853;SDS011;40747;49.480;8.658;2023-11-18T02:42:57;8.32;;;4.85;;
54853;SDS011;40747;49.480;8.658;2023-11-18T02:45:24;7.28;;;4.80;;
54853;SDS011;40747;49.480;8.658;2023-11-18T02:47:49;10.40;;;5.18;;
54853;SDS011;40747;49.480;8.658;2023-11-18T02:50:14;9.07;;;4.38;;
54853;SDS011;40747;49.480;8.658;2023-11-18T02:52:40;9.80;;;5.07;;
54853;SDS011;40747;49.480;8.658;2023-11-18T02:55:07;8.70;;;4.50;;
54853;SDS011;40747;49.480;8.658;2023-11-18T02:57:34;10.02;;;5.68;;
54853;SDS011;40747;49.480;8.658;2023-11-18T02:59:59;7.57;;;3.90;;
54853;SDS011;40747;49.480;8.658;2023-11-18T03:02:28;13.20;;;5.30;;
54853;SDS011;40747;49.480;8.658;2023-11-18T03:04:55;6.72;;;5.25;;
54853;SDS011;40747;49.480;8.658;2023-11-18T03:07:20;11.35;;;6.40;;
54853;SDS011;40747;49.480;8.658;2023-11-18T03:09:46;7.13;;;4.18;;
54853;SDS011;40747;49.480;8.658;2023-11-18T03:12:12;10.63;;;5.80;;
54853;SDS011;40747;49.480;8.658;2023-11-18T03:14:37;9.27;;;4.47;;
54853;SDS011;40747;49.480;8.658;2023-11-18T03:17:03;12.32;;;7.00;;
54853;SDS011;40747;49.480;8.658;2023-11-18T03:19:31;7.68;;;4.82;;
54853;SDS011;40747;49.480;8.658;2023-11-18T03:21:58;12.27;;;6.22;;
54853;SDS011;40747;49.480;8.658;2023-11-18T03:24:24;9.52;;;5.90;;
54853;SDS011;40747;49.480;8.658;2023-11-18T03:26:50;10.57;;;5.75;;
54853;SDS011;40747;49.480;8.658;2023-11-18T03:29:15;10.43;;;5.10;;
54853;SDS011;40747;49.480;8.658;2023-11-18T03:31:41;12.25;;;5.20;;
54853;SDS011;40747;49.480;8.658;2023-11-18T03:34:09;11.93;;;4.95;;
54853;SDS011;40747;49.480;8.658;2023-11-18T03:36:34;7.72;;;4.65;;
54853;SDS011;40747;49.480;8.658;2023-11-18T03:38:59;10.30;;;4.90;;
54853;SDS011;40747;49.480;8.658;2023-11-18T03:41:26;8.43;;;4.35;;
54853;SDS011;40747;49.480;8.658;2023-11-18T03:43:52;8.45;;;4.68;;
54853;SDS011;40747;49.480;8.658;2023-11-18T03:46:17;13.75;;;5.97;;
54853;SDS011;40747;49.480;8.658;2023-11-18T03:48:43;7.97;;;4.95;;
54853;SDS011;40747;49.480;8.658;2023-11-18T03:51:09;9.18;;;4.82;;
54853;SDS011;40747;49.480;8.658;2023-11-18T03:53:35;9.18;;;5.53;;
54853;SDS011;40747;49.480;8.658;2023-11-18T03:56:00;9.60;;;5.18;;
54853;SDS011;40747;49.480;8.658;2023-11-18T03:58:27;9.20;;;5.30;;
54853;SDS011;40747;49.480;8.658;2023-11-18T04:00:52;9.27;;;6.07;;
54853;SDS011;40747;49.480;8.658;2023-11-18T04:03:18;12.32;;;4.28;;
54853;SDS011;40747;49.480;8.658;2023-11-18T04:05:44;9.48;;;4.75;;
54853;SDS011;40747;49.480;8.658;2023-11-18T04:08:09;7.47;;;3.60;;
54853;SDS011;40747;49.480;8.658;2023-11-18T04:10:36;6.85;;;4.72;;
54853;SDS011;40747;49.480;8.658;2023-11-18T04:13:02;7.40;;;4.78;;
54853;SDS011;40747;49.480;8.658;2023-11-18T04:15:27;11.50;;;5.53;;
54853;SDS011;40747;49.480;8.658;2023-11-18T04:17:52;7.68;;;4.65;;
54853;SDS011;40747;49.480;8.658;2023-11-18T04:20:18;11.52;;;4.95;;
54853;SDS011;40747;49.480;8.658;2023-11-18T04:22:44;12.50;;;7.30;;
54853;SDS011;40747;49.480;8.658;2023-11-18T04:25:10;11.38;;;4.75;;
54853;SDS011;40747;49.480;8.658;2023-11-18T04:27:39;7.43;;;4.43;;
54853;SDS011;40747;49.480;8.658;2023-11-18T04:30:05;5.20;;;4.68;;
54853;SDS011;40747;49.480;8.658;2023-11-18T04:32:31;5.10;;;3.40;;
54853;SDS011;40747;49.480;8.658;2023-11-18T04:34:59;5.90;;;3.90;;
54853;SDS011;40747;49.480;8.658;2023-11-18T04:37:31;6.25;;;3.58;;
54853;SDS011;40747;49.480;8.658;2023-11-18T04:39:57;9.10;;;5.50;;
54853;SDS011;40747;49.480;8.658;2023-11-18T04:42:22;17.77;;;5.53;;
54853;SDS011;40747;49.480;8.658;2023-11-18T04:44:48;9.02;;;6.97;;
54853;SDS011;40747;49.480;8.658;2023-11-18T04:47:13;12.50;;;6.13;;
54853;SDS011;40747;49.480;8.658;2023-11-18T04:49:38;11.23;;;5.95;;
54853;SDS011;40747;49.480;8.658;2023-11-18T04:52:04;7.43;;;4.93;;
54853;SDS011;40747;49.480;8.658;2023-11-18T04:54:31;9.50;;;6.13;;
54853;SDS011;40747;49.480;8.658;2023-11-18T04:56:56;8.13;;;4.95;;
54853;SDS011;40747;49.480;8.658;2023-11-18T04:59:23;9.02;;;5.60;;
54853;SDS011;40747;49.480;8.658;2023-11-18T05:01:48;9.95;;;5.22;;
54853;SDS011;40747;49.480;8.658;2023-11-18T05:04:13;9.75;;;6.18;;
54853;SDS011;40747;49.480;8.658;2023-11-18T05:06:39;12.13;;;5.90;;
54853;SDS011;40747;49.480;8.658;2023-11-18T05:09:04;5.93;;;3.70;;
54853;SDS011;40747;49.480;8.658;2023-11-18T05:11:32;9.95;;;4.60;;
54853;SDS011;40747;49.480;8.658;2023-11-18T05:13:58;13.90;;;5.75;;
54853;SDS011;40747;49.480;8.658;2023-11-18T05:16:24;18.15;;;6.38;;
54853;SDS011;40747;49.480;8.658;2023-11-18T05:18:49;10.02;;;5.47;;
54853;SDS011;40747;49.480;8.658;2023-11-18T05:21:14;10.18;;;6.00;;
54853;SDS011;40747;49.480;8.658;2023-11-18T05:23:40;9.13;;;3.90;;
54853;SDS011;40747;49.480;8.658;2023-11-18T05:26:05;10.35;;;5.07;;
54853;SDS011;40747;49.480;8.658;2023-11-18T05:28:31;5.20;;;4.50;;
54853;SDS011;40747;49.480;8.658;2023-11-18T05:30:57;6.35;;;4.47;;
54853;SDS011;40747;49.480;8.658;2023-11-18T05:33:23;10.20;;;5.35;;
54853;SDS011;40747;49.480;8.658;2023-11-18T05:35:48;13.07;;;5.03;;
54853;SDS011;40747;49.480;8.658;2023-11-18T05:38:15;7.40;;;4.97;;
54853;SDS011;40747;49.480;8.658;2023-11-18T05:40:43;7.68;;;4.47;;
54853;SDS011;40747;49.480;8.658;2023-11-18T05:43:14;13.73;;;4.95;;
54853;SDS011;40747;49.480;8.658;2023-11-18T05:45:41;11.07;;;6.13;;
54853;SDS011;40747;49.480;8.658;2023-11-18T05:48:26;11.13;;;6.82;;
54853;SDS011;40747;49.480;8.658;2023-11-18T05:50:52;9.63;;;5.85;;
54853;SDS011;40747;49.480;8.658;2023-11-18T05:53:17;10.60;;;5.55;;
54853;SDS011;40747;49.480;8.658;2023-11-18T05:55:42;6.63;;;4.85;;
54853;SDS011;40747;49.480;8.658;2023-11-18T05:58:08;11.38;;;5.93;;
54853;SDS011;40747;49.480;8.658;2023-11-18T06:00:33;9.65;;;5.85;;
54853;SDS011;40747;49.480;8.658;2023-11-18T06:02:59;9.45;;;5.40;;
54853;SDS011;40747;49.480;8.658;2023-11-18T06:05:25;14.73;;;6.57;;
54853;SDS011;40747;49.480;8.658;2023-11-18T06:07:54;10.38;;;5.90;;
54853;SDS011;40747;49.480;8.658;2023-11-18T06:10:19;18.85;;;8.52;;
54853;SDS011;40747;49.480;8.658;2023-11-18T06:12:45;15.50;;;8.80;;
54853;SDS011;40747;49.480;8.658;2023-11-18T06:15:11;18.15;;;9.43;;
54853;SDS011;40747;49.480;8.658;2023-11-18T06:17:39;17.83;;;8.68;;
54853;SDS011;40747;49.480;8.658;2023-11-18T06:20:05;13.55;;;6.32;;
54853;SDS011;40747;49.480;8.658;2023-11-18T06:22:31;12.50;;;7.28;;
54853;SDS011;40747;49.480;8.658;2023-11-18T06:24:56;13.15;;;7.90;;
54853;SDS011;40747;49.480;8.658;2023-11-18T06:27:22;13.30;;;6.45;;
54853;SDS011;40747;49.480;8.658;2023-11-18T06:29:49;12.77;;;6.25;;
54853;SDS011;40747;49.480;8.658;2023-11-18T06:32:15;12.18;;;8.13;;
54853;SDS011;40747;49.480;8.658;2023-11-18T06:34:41;17.33;;;9.43;;
54853;SDS011;40747;49.480;8.658;2023-11-18T06:37:06;14.10;;;7.75;;
54853;SDS011;40747;49.480;8.658;2023-11-18T06:39:32;8.45;;;5.47;;
54853;SDS011;40747;49.480;8.658;2023-11-18T06:42:00;19.80;;;7.82;;
54853;SDS011;40747;49.480;8.658;2023-11-18T06:44:26;15.10;;;8.30;;
54853;SDS011;40747;49.480;8.658;2023-11-18T06:46:51;16.50;;;9.52;;
54853;SDS011;40747;49.480;8.658;2023-11-18T06:49:17;15.85;;;8.73;;
54853;SDS011;40747;49.480;8.658;2023-11-18T06:51:43;10.13;;;7.70;;
54853;SDS011;40747;49.480;8.658;2023-11-18T06:54:09;12.40;;;7.70;;
54853;SDS011;40747;49.480;8.658;2023-11-18T06:56:38;12.88;;;7.18;;
54853;SDS011;40747;49.480;8.658;2023-11-18T06:59:04;16.27;;;9.20;;
54853;SDS011;40747;49.480;8.658;2023-11-18T07:01:31;14.13;;;7.00;;
54853;SDS011;40747;49.480;8.658;2023-11-18T07:03:56;17.45;;;8.95;;
54853;SDS011;40747;49.480;8.658;2023-11-18T07:06:22;16.48;;;9.80;;
54853;SDS011;40747;49.480;8.658;2023-11-18T07:08:48;14.23;;;7.72;;
54853;SDS011;40747;49.480;8.658;2023-11-18T07:11:17;16.95;;;9.18;;
54853;SDS011;40747;49.480;8.658;2023-11-18T07:13:43;11.95;;;8.00;;
54853;SDS011;40747;49.480;8.658;2023-11-18T07:16:09;11.65;;;7.60;;
54853;SDS011;40747;49.480;8.658;2023-11-18T07:18:35;15.30;;;9.07;;
54853;SDS011;40747;49.480;8.658;2023-11-18T07:21:02;13.98;;;7.35;;
54853;SDS011;40747;49.480;8.658;2023-11-18T07:23:30;15.30;;;7.53;;
54853;SDS011;40747;49.480;8.658;2023-11-18T07:25:56;15.60;;;8.93;;
54853;SDS011;40747;49.480;8.658;2023-11-18T07:28:22;11.70;;;6.50;;
54853;SDS011;40747;49.480;8.658;2023-11-18T07:30:48;12.73;;;6.88;;
54853;SDS011;40747;49.480;8.658;2023-11-18T07:33:14;21.17;;;8.65;;
54853;SDS011;40747;49.480;8.658;2023-11-18T07:35:40;14.55;;;7.68;;
54853;SDS011;40747;49.480;8.658;2023-11-18T07:38:05;24.17;;;11.05;;
54853;SDS011;40747;49.480;8.658;2023-11-18T07:40:32;14.30;;;7.75;;
54853;SDS011;40747;49.480;8.658;2023-11-18T07:42:58;15.35;;;7.72;;
54853;SDS011;40747;49.480;8.658;2023-11-18T07:45:26;16.40;;;8.43;;
54853;SDS011;40747;49.480;8.658;2023-11-18T07:47:53;26.08;;;11.85;;
54853;SDS011;40747;49.480;8.658;2023-11-18T07:50:22;14.07;;;7.10;;
54853;SDS011;40747;49.480;8.658;2023-11-18T07:52:47;24.33;;;9.85;;
54853;SDS011;40747;49.480;8.658;2023-11-18T07:55:14;11.98;;;6.95;;
54853;SDS011;40747;49.480;8.658;2023-11-18T07:57:39;11.60;;;5.93;;
54853;SDS011;40747;49.480;8.658;2023-11-18T08:00:06;13.27;;;5.68;;
54853;SDS011;40747;49.480;8.658;2023-11-18T08:02:34;19.52;;;7.90;;
54853;SDS011;40747;49.480;8.658;2023-11-18T08:05:04;15.95;;;8.00;;
54853;SDS011;40747;49.480;8.658;2023-11-18T08:07:35;26.80;;;10.65;;
54853;SDS011;40747;49.480;8.658;2023-11-18T08:10:03;25.02;;;9.00;;
54853;SDS011;40747;49.480;8.658;2023-11-18T08:12:29;19.17;;;7.85;;
54853;SDS011;40747;49.480;8.658;2023-11-18T08:14:59;6.85;;;3.22;;
54853;SDS011;40747;49.480;8.658;2023-11-18T08:17:25;20.30;;;10.80;;
54853;SDS011;40747;49.480;8.658;2023-11-18T08:19:52;21.40;;;9.25;;
54853;SDS011;40747;49.480;8.658;2023-11-18T08:22:27;24.35;;;11.77;;
54853;SDS011;40747;49.480;8.658;2023-11-18T08:24:53;18.55;;;9.95;;
54853;SDS011;40747;49.480;8.658;2023-11-18T08:27:18;11.93;;;7.85;;
54853;SDS011;40747;49.480;8.658;2023-11-18T08:29:44;22.00;;;10.00;;
54853;SDS011;40747;49.480;8.658;2023-11-18T08:32:17;16.83;;;7.82;;
54853;SDS011;40747;49.480;8.658;2023-11-18T08:34:42;21.52;;;10.32;;
54853;SDS011;40747;49.480;8.658;2023-11-18T08:37:08;23.52;;;11.35;;
54853;SDS011;40747;49.480;8.658;2023-11-18T08:39:34;16.30;;;8.32;;
54853;SDS011;40747;49.480;8.658;2023-11-18T08:42:00;27.35;;;11.70;;
54853;SDS011;40747;49.480;8.658;2023-11-18T08:44:26;28.00;;;11.68;;
54853;SDS011;40747;49.480;8.658;2023-11-18T08:46:52;20.20;;;10.02;;
54853;SDS011;40747;49.480;8.658;2023-11-18T08:49:18;23.60;;;11.15;;
54853;SDS011;40747;49.480;8.658;2023-11-18T08:51:47;18.33;;;9.63;;
54853;SDS011;40747;49.480;8.658;2023-11-18T08:54:14;12.13;;;7.47;;
54853;SDS011;40747;49.480;8.658;2023-11-18T08:57:03;9.77;;;5.38;;
54853;SDS011;40747;49.480;8.658;2023-11-18T08:59:44;13.70;;;6.65;;
54853;SDS011;40747;49.480;8.658;2023-11-18T09:02:09;8.68;;;4.15;;
54853;SDS011;40747;49.480;8.658;2023-11-18T09:04:40;10.13;;;4.88;;
54853;SDS011;40747;49.480;8.658;2023-11-18T09:07:08;12.20;;;5.78;;
54853;SDS011;40747;49.480;8.658;2023-11-18T09:09:35;9.57;;;5.72;;
54853;SDS011;40747;49.480;8.658;2023-11-18T09:12:00;9.90;;;4.80;;
54853;SDS011;40747;49.480;8.658;2023-11-18T09:14:27;10.13;;;5.00;;
54853;SDS011;40747;49.480;8.658;2023-11-18T09:16:53;7.28;;;4.18;;
54853;SDS011;40747;49.480;8.658;2023-11-18T09:19:24;12.70;;;4.65;;
54853;SDS011;40747;49.480;8.658;2023-11-18T09:24:20;8.48;;;4.50;;
54853;SDS011;40747;49.480;8.658;2023-11-18T09:26:46;8.60;;;4.00;;
54853;SDS011;40747;49.480;8.658;2023-11-18T09:29:15;9.43;;;4.75;;
54853;SDS011;40747;49.480;8.658;2023-11-18T09:31:46;8.75;;;5.47;;
54853;SDS011;40747;49.480;8.658;2023-11-18T09:34:15;12.50;;;5.13;;
54853;SDS011;40747;49.480;8.658;2023-11-18T09:36:42;5.53;;;4.07;;
54853;SDS011;40747;49.480;8.658;2023-11-18T09:39:10;7.35;;;3.95;;
54853;SDS011;40747;49.480;8.658;2023-11-18T09:41:55;6.80;;;4.63;;
54853;SDS011;40747;49.480;8.658;2023-11-18T09:44:22;6.63;;;4.18;;
54853;SDS011;40747;49.480;8.658;2023-11-18T09:46:51;7.22;;;4.53;;
54853;SDS011;40747;49.480;8.658;2023-11-18T09:49:29;5.00;;;3.63;;
54853;SDS011;40747;49.480;8.658;2023-11-18T09:52:04;7.68;;;4.22;;
54853;SDS011;40747;49.480;8.658;2023-11-18T09:54:36;7.07;;;3.97;;
54853;SDS011;40747;49.480;8.658;2023-11-18T10:02:51;6.63;;;4.63;;
54853;SDS011;40747;49.480;8.658;2023-11-18T10:05:18;7.78;;;5.00;;
54853;SDS011;40747;49.480;8.658;2023-11-18T10:07:46;5.60;;;4.15;;
54853;SDS011;40747;49.480;8.658;2023-11-18T10:10:15;11.43;;;5.20;;
54853;SDS011;40747;49.480;8.658;2023-11-18T10:12:41;8.05;;;5.00;;
54853;SDS011;40747;49.480;8.658;2023-11-18T10:15:14;5.72;;;3.70;;
54853;SDS011;40747;49.480;8.658;2023-11-18T10:17:44;7.75;;;4.45;;
54853;SDS011;40747;49.480;8.658;2023-11-18T10:20:22;5.78;;;3.85;;
54853;SDS011;40747;49.480;8.658;2023-11-18T10:23:09;10.52;;;4.82;;
54853;SDS011;40747;49.480;8.658;2023-11-18T10:25:36;10.13;;;4.10;;
54853;SDS011;40747;49.480;8.658;2023-11-18T10:28:05;3.30;;;2.03;;
54853;SDS011;40747;49.480;8.658;2023-11-18T10:30:31;3.15;;;1.90;;
54853;SDS011;40747;49.480;8.658;2023-11-18T10:32:58;4.85;;;3.35;;
54853;SDS011;40747;49.480;8.658;2023-11-18T10:35:37;6.75;;;3.90;;
54853;SDS011;40747;49.480;8.658;2023-11-18T10:38:02;19.38;;;4.47;;
54853;SDS011;40747;49.480;8.658;2023-11-18T10:40:33;7.53;;;4.22;;
54853;SDS011;40747;49.480;8.658;2023-11-18T10:43:05;4.60;;;2.78;;
54853;SDS011;40747;49.480;8.658;2023-11-18T10:45:37;4.03;;;2.83;;
54853;SDS011;40747;49.480;8.658;2023-11-18T10:48:06;5.53;;;2.00;;
54853;SDS011;40747;49.480;8.658;2023-11-18T10:50:31;6.45;;;3.40;;
54853;SDS011;40747;49.480;8.658;2023-11-18T10:52:58;5.97;;;2.97;;
54853;SDS011;40747;49.480;8.658;2023-11-18T10:55:44;9.52;;;3.95;;
54853;SDS011;40747;49.480;8.658;2023-11-18T11:00:51;4.45;;;3.05;;
54853;SDS011;40747;49.480;8.658;2023-11-18T11:03:25;6.90;;;3.25;;
54853;SDS011;40747;49.480;8.658;2023-11-18T11:05:51;1.33;;;1.15;;
54853;SDS011;40747;49.480;8.658;2023-11-18T11:08:19;3.92;;;2.00;;
54853;SDS011;40747;49.480;8.658;2023-11-18T11:10:45;4.30;;;2.28;;
54853;SDS011;40747;49.480;8.658;2023-11-18T11:13:10;2.88;;;1.63;;
54853;SDS011;40747;49.480;8.658;2023-11-18T11:15:41;3.53;;;2.20;;
54853;SDS011;40747;49.480;8.658;2023-11-18T11:18:10;2.38;;;1.45;;
54853;SDS011;40747;49.480;8.658;2023-11-18T11:24:11;2.28;;;1.27;;
54853;SDS011;40747;49.480;8.658;2023-11-18T11:26:52;3.65;;;2.50;;
54853;SDS011;40747;49.480;8.658;2023-11-18T11:29:37;2.83;;;1.90;;
54853;SDS011;40747;49.480;8.658;2023-11-18T11:32:16;4.85;;;2.28;;
54853;SDS011;40747;49.480;8.658;2023-11-18T11:35:18;4.82;;;2.88;;
54853;SDS011;40747;49.480;8.658;2023-11-18T11:37:47;4.15;;;2.63;;
54853;SDS011;40747;49.480;8.658;2023-11-18T11:40:15;2.83;;;1.95;;
54853;SDS011;40747;49.480;8.658;2023-11-18T11:42:48;4.82;;;2.67;;
54853;SDS011;40747;49.480;8.658;2023-11-18T11:45:21;3.85;;;2.85;;
54853;SDS011;40747;49.480;8.658;2023-11-18T11:51:01;8.02;;;2.92;;
54853;SDS011;40747;49.480;8.658;2023-11-18T11:53:42;4.50;;;2.80;;
54853;SDS011;40747;49.480;8.658;2023-11-18T11:56:17;3.30;;;1.58;;
54853;SDS011;40747;49.480;8.658;2023-11-18T11:58:46;7.40;;;2.08;;
54853;SDS011;40747;49.480;8.658;2023-11-18T12:03:58;3.78;;;1.92;;
54853;SDS011;40747;49.480;8.658;2023-11-18T12:06:31;2.05;;;1.20;;
54853;SDS011;40747;49.480;8.658;2023-11-18T12:09:05;3.80;;;1.73;;
54853;SDS011;40747;49.480;8.658;2023-11-18T12:11:34;1.73;;;1.40;;
54853;SDS011;40747;49.480;8.658;2023-11-18T12:14:07;7.40;;;1.80;;
54853;SDS011;40747;49.480;8.658;2023-11-18T12:19:28;2.58;;;1.02;;
54853;SDS011;40747;49.480;8.658;2023-11-18T12:22:01;2.15;;;1.38;;
54853;SDS011;40747;49.480;8.658;2023-11-18T12:27:00;3.08;;;1.10;;
54853;SDS011;40747;49.480;8.658;2023-11-18T12:29:32;1.80;;;1.15;;
54853;SDS011;40747;49.480;8.658;2023-11-18T12:31:59;22.90;;;1.63;;
54853;SDS011;40747;49.480;8.658;2023-11-18T12:34:25;6.45;;;2.28;;
54853;SDS011;40747;49.480;8.658;2023-11-18T12:40:07;4.38;;;1.35;;
54853;SDS011;40747;49.480;8.658;2023-11-18T12:45:30;2.95;;;1.33;;
54853;SDS011;40747;49.480;8.658;2023-11-18T12:48:15;2.28;;;1.17;;
54853;SDS011;40747;49.480;8.658;2023-11-18T12:50:51;2.75;;;2.38;;
54853;SDS011;40747;49.480;8.658;2023-11-18T12:53:20;2.70;;;1.58;;
54853;SDS011;40747;49.480;8.658;2023-11-18T12:55:49;2.20;;;1.85;;
54853;SDS011;40747;49.480;8.658;2023-11-18T12:58:15;3.03;;;1.35;;
54853;SDS011;40747;49.480;8.658;2023-11-18T13:00:41;0.82;;;0.82;;
54853;SDS011;40747;49.480;8.658;2023-11-18T13:03:08;2.22;;;0.68;;
54853;SDS011;40747;49.480;8.658;2023-11-18T13:05:35;1.75;;;1.30;;
54853;SDS011;40747;49.480;8.658;2023-11-18T13:08:02;7.63;;;1.67;;
54853;SDS011;40747;49.480;8.658;2023-11-18T13:10:28;1.25;;;1.13;;
54853;SDS011;40747;49.480;8.658;2023-11-18T13:12:54;1.65;;;0.95;;
54853;SDS011;40747;49.480;8.658;2023-11-18T13:15:19;1.50;;;1.38;;
54853;SDS011;40747;49.480;8.658;2023-11-18T13:18:01;3.55;;;2.92;;
54853;SDS011;40747;49.480;8.658;2023-11-18T13:20:31;3.22;;;1.75;;
54853;SDS011;40747;49.480;8.658;2023-11-18T13:23:00;1.98;;;1.52;;
54853;SDS011;40747;49.480;8.658;2023-11-18T13:25:33;7.28;;;1.55;;
54853;SDS011;40747;49.480;8.658;2023-11-18T13:27:59;1.00;;;0.50;;
54853;SDS011;40747;49.480;8.658;2023-11-18T13:30:26;1.13;;;0.73;;
54853;SDS011;40747;49.480;8.658;2023-11-18T13:32:51;13.68;;;6.78;;
54853;SDS011;40747;49.480;8.658;2023-11-18T13:35:17;4.10;;;2.58;;
54853;SDS011;40747;49.480;8.658;2023-11-18T13:37:46;6.25;;;2.97;;
54853;SDS011;40747;49.480;8.658;2023-11-18T13:40:13;3.85;;;3.47;;
54853;SDS011;40747;49.480;8.658;2023-11-18T13:42:38;5.10;;;2.05;;
54853;SDS011;40747;49.480;8.658;2023-11-18T13:45:05;1.23;;;1.00;;
54853;SDS011;40747;49.480;8.658;2023-11-18T13:47:37;2.00;;;1.30;;
54853;SDS011;40747;49.480;8.658;2023-11-18T13:50:08;6.30;;;1.10;;
54853;SDS011;40747;49.480;8.658;2023-11-18T13:52:34;0.63;;;0.57;;
54853;SDS011;40747;49.480;8.658;2023-11-18T13:55:00;1.38;;;0.55;;
54853;SDS011;40747;49.480;8.658;2023-11-18T13:57:26;4.57;;;1.00;;
54853;SDS011;40747;49.480;8.658;2023-11-18T13:59:51;5.05;;;1.30;;
54853;SDS011;40747;49.480;8.658;2023-11-18T14:02:19;6.70;;;1.00;;
54853;SDS011;40747;49.480;8.658;2023-11-18T14:04:44;1.80;;;0.98;;
54853;SDS011;40747;49.480;8.658;2023-11-18T14:07:13;1.33;;;0.93;;
54853;SDS011;40747;49.480;8.658;2023-11-18T14:09:41;1.10;;;0.85;;
54853;SDS011;40747;49.480;8.658;2023-11-18T14:12:07;5.00;;;0.88;;
54853;SDS011;40747;49.480;8.658;2023-11-18T14:14:33;1.20;;;0.90;;
54853;SDS011;40747;49.480;8.658;2023-11-18T14:16:59;1.75;;;1.13;;
54853;SDS011;40747;49.480;8.658;2023-11-18T14:19:30;1.63;;;0.63;;
54853;SDS011;40747;49.480;8.658;2023-11-18T14:21:56;0.65;;;0.65;;
54853;SDS011;40747;49.480;8.658;2023-11-18T14:24:21;0.57;;;0.45;;
54853;SDS011;40747;49.480;8.658;2023-11-18T14:26:56;0.98;;;0.85;;
54853;SDS011;40747;49.480;8.658;2023-11-18T14:29:21;2.95;;;1.30;;
54853;SDS011;40747;49.480;8.658;2023-11-18T14:31:48;0.77;;;0.65;;
54853;SDS011;40747;49.480;8.658;2023-11-18T14:34:13;2.55;;;1.00;;
54853;SDS011;40747;49.480;8.658;2023-11-18T14:36:39;3.67;;;1.30;;
54853;SDS011;40747;49.480;8.658;2023-11-18T14:39:06;5.90;;;0.90;;
54853;SDS011;40747;49.480;8.658;2023-11-18T14:41:35;2.17;;;0.95;;
54853;SDS011;40747;49.480;8.658;2023-11-18T14:44:01;1.95;;;1.27;;
54853;SDS011;40747;49.480;8.658;2023-11-18T14:46:29;3.03;;;1.60;;
54853;SDS011;40747;49.480;8.658;2023-11-18T14:48:56;1.67;;;1.33;;
54853;SDS011;40747;49.480;8.658;2023-11-18T14:51:21;2.70;;;1.50;;
54853;SDS011;40747;49.480;8.658;2023-11-18T14:53:47;2.58;;;1.25;;
54853;SDS011;40747;49.480;8.658;2023-11-18T14:56:13;5.57;;;2.15;;
54853;SDS011;40747;49.480;8.658;2023-11-18T14:58:39;9.55;;;2.38;;
54853;SDS011;40747;49.480;8.658;2023-11-18T15:01:05;5.07;;;1.25;;
54853;SDS011;40747;49.480;8.658;2023-11-18T15:03:33;3.15;;;1.75;;
54853;SDS011;40747;49.480;8.658;2023-11-18T15:05:59;2.97;;;2.28;;
54853;SDS011;40747;49.480;8.658;2023-11-18T15:08:25;6.22;;;2.85;;
54853;SDS011;40747;49.480;8.658;2023-11-18T15:10:50;3.17;;;1.55;;
54853;SDS011;40747;49.480;8.658;2023-11-18T15:13:16;3.38;;;2.15;;
54853;SDS011;40747;49.480;8.658;2023-11-18T15:15:42;4.13;;;2.05;;
54853;SDS011;40747;49.480;8.658;2023-11-18T15:18:10;3.75;;;1.88;;
54853;SDS011;40747;49.480;8.658;2023-11-18T15:20:45;4.30;;;1.55;;
54853;SDS011;40747;49.480;8.658;2023-11-18T15:23:14;3.70;;;2.53;;